Het weer levert geen direct gevaar op.    Er zijn geen waarschuwingen afgegeven.

Onweer radar more information blitzortung!


Regen radar more information rain snow radar


Meteo Sauwerd

Weerstation Alkmaar Centrum

Weerstation Luyksgestel

Website Noardburgum



METAR rapporten vliegvelden

   
EHLW - Leeuwarden Rnlaf, Netherlands
Afstand tot: W 17 km
Gewijzigd: 18-08-2018 04:25
Helder  
Helder  
   Wind: Zuiden 11 km/h
Wind: Zuiden 11 km/h
Temperatuur: 14°C
Dauwpunt: 13°C
Vochtigheid: 94%
Barometer: 1019 hPa
Bewolking: Helder
Zicht: meer dan 10 km
Bewolking: Helder
EHLW 180225Z AUTO 18006KT 9999 NCD 14/13 Q1019 BLU 28009KT 9999 FEW036
EHMA - Awg-1 Sea, Netherlands
Afstand tot: N 31 km
Gewijzigd: 18-08-2018 04:25
Helder  
Helder  
   Wind: ZZW 33 km/h
Wind: ZZW 33 km/h
Temperatuur: 16°C
Dauwpunt: 14°C
Vochtigheid: 88%
Barometer: 1019 hPa
Bewolking: Helder
Zicht: meer dan 10 km
Bewolking: Helder
EHMA 180225Z AUTO 20018KT 180V240 9999 NCD 16/14 Q1019 W///H///
EHGG - Groningen/Eelde, Netherlands
Afstand tot: OZO 40 km
Gewijzigd: 18-08-2018 04:25
Helder  
Helder  
   Wind: Zuiden 7 km/h
Wind: Zuiden 7 km/h
Temperatuur: 11°C
Dauwpunt: 10°C
Vochtigheid: 94%
Barometer: 1020 hPa
Bewolking: Helder
Zicht: meer dan 10 km
Bewolking: Helder
EHGG 180225Z AUTO 18004KT 9999 NCD 11/10 Q1020
EHVL - Vlieland Island, Netherlands
Afstand tot: W 72 km
Gewijzigd: 18-08-2018 04:25
Helder  
Helder  
   Wind: ZW 26 km/h
Wind: ZW 26 km/h
Temperatuur: 17°C
Dauwpunt: 14°C
Vochtigheid: 83%
Barometer: 1018 hPa
Bewolking: Helder
Zicht: meer dan 10 km
Bewolking: Helder
EHVL 180225Z AUTO 22014KT 9999 NCD 17/14 Q1018 BLU
EHMG - L9-Ff-1 Sea, Netherlands
Afstand tot: WNW 81 km
Gewijzigd: 18-08-2018 04:25
Licht bewolkt  
Licht bewolkt  
   Wind: ZW 35 km/h
Wind: ZW 35 km/h
Temperatuur: 19°C
Dauwpunt: 15°C
Vochtigheid: 78%
Barometer: 1018 hPa
Bewolking: Licht bewolkt
Zicht: meer dan 10 km
Bewolking: Licht bewolkt 4900 ft
EHMG 180225Z AUTO 23019KT 9999 FEW049 19/15 Q1018 W///H///
EHKD - De Kooy (navy), Netherlands
Afstand tot: WZW 89 km
Gewijzigd: 18-08-2018 04:25
Licht bewolkt  
Licht bewolkt  
   Wind: Zuiden 13 km/h
Wind: Zuiden 13 km/h
Temperatuur: 15°C
Dauwpunt: 13°C
Vochtigheid: 88%
Barometer: 1019 hPa
Bewolking: Licht bewolkt
Zicht: meer dan 10 km
Bewolking: Licht bewolkt 2300 ft
EHKD 180225Z AUTO 17007KT 9999 FEW023 15/13 Q1019 BLU

Script ontwikkeld door  Saratoga-weather.org Aangepast voor de template door  Weerstation Leuven

U vindt ons ook hier:

Het Weer Aktueel

UK Metoffice

European Weather Network

Weather Underground

AWEKAS

Citizen Weather Observer Program (CWOP)

HAMweather, WeatherForYou, PWS Weather

Apparatuur in gebruik:

Weerstation
Davis Vantage pro 2

Weerprogramma
Meteobridge

Weercomputer
TP-Link TL-WR703N

Webleverancier
Versio

Davis Vantage pro 2

Meteobridge

TP-Link TL-WR703N

Versio